Portada
METAR-TAF:

METAR-TAF

Aeroports :

Hawthorne, Califòrnia, Estats Units d'Amèrica

latitud: 33-55-25N, longitud: 118-19-55W, altitud: 19 m

Observació

L'informe es va fer fa 8 minuts, a les 07:37 UTC
Vent 3 kt del Oest/Sud-Oest
Temperatura 18°C
Humitat 88%
Pressió 1012 hPa
Visibilitat: 8.0 km
Escasses núvols a una alçada de 400 ft
boirina

METAR: KHHR 230737Z AUTO 25003KT 5SM BR FEW004 18/16 A2988 RMK AO2 T01780161 $

Hora: 00:45 (07:45 UTC)


TAF: manca

Observacions i pronòstics meteorològics de més de 4000 aeroports (METAR i TAF).

Les estacions disponibles són els punts grocs i vermells al mapa.

Posi el ratolí al punt desitjat per veure el nom de l'estació.

Feu clic per veure les observacions i els pronòstics meteorològics.

Per canviar el mapa: feu clic els botons verds amb una creu de color negre per apropar; al botó verd amb un guió per allunyar la imatge; o en les fletxes verdes per a mapes adjacents.


METAR-TAF: